Time;durP1;ratioP1;P1;durP2;ratioP2;P2;SDS_P1;SDS_P2;PMS_P1;PMS_P2;Temp;Humidity;BMP_temperature;BMP_pressure;BME280_temperature;BME280_humidity;BME280_pressure;Samples;Min_cycle;Max_cycle;Signal;HPM_P1;HPM_P2
2023/05/12 00:01:40;;;;;;;5.07;3.20;;;12.80;99.90;;;;;;5114132;28;20476;-39
2023/05/12 00:04:06;;;;;;;8.80;3.50;;;12.80;99.90;;;;;;5092983;28;20035;-39
2023/05/12 00:06:32;;;;;;;7.35;2.45;;;12.80;99.90;;;;;;5093025;28;20022;-41
2023/05/12 00:08:58;;;;;;;7.05;2.70;;;12.80;99.90;;;;;;5104905;28;20024;-39
2023/05/12 00:11:24;;;;;;;3.03;2.33;;;12.80;99.90;;;;;;5111373;28;20059;-39
2023/05/12 00:13:50;;;;;;;4.57;2.90;;;12.70;99.90;;;;;;5112031;27;20024;-40
2023/05/12 00:16:17;;;;;;;6.88;3.08;;;12.70;99.90;;;;;;5113343;28;20020;-42
2023/05/12 00:18:43;;;;;;;4.95;2.85;;;12.70;99.90;;;;;;5107751;28;20024;-37
2023/05/12 00:21:09;;;;;;;4.28;2.70;;;12.70;99.90;;;;;;5112928;28;20035;-40
2023/05/12 00:23:35;;;;;;;4.18;2.67;;;12.70;99.90;;;;;;5110997;28;20028;-40
2023/05/12 00:26:00;;;;;;;4.03;2.42;;;12.70;99.90;;;;;;5104292;28;20468;-39
2023/05/12 00:28:26;;;;;;;4.45;3.13;;;12.70;99.90;;;;;;5101968;28;20024;-40
2023/05/12 00:30:52;;;;;;;4.47;3.30;;;12.70;99.90;;;;;;5093292;28;20031;-41
2023/05/12 00:33:17;;;;;;;4.47;2.60;;;12.70;99.90;;;;;;5094360;28;20024;-39
2023/05/12 00:35:46;;;;;;;6.45;3.20;;;12.60;99.90;;;;;;5111899;28;20031;-39
2023/05/12 00:38:12;;;;;;;3.28;2.75;;;12.60;99.90;;;;;;5112474;28;20104;-41
2023/05/12 00:40:38;;;;;;;5.20;2.60;;;12.60;99.90;;;;;;5113734;28;20418;-41
2023/05/12 00:43:04;;;;;;;5.00;2.85;;;12.60;99.90;;;;;;5109013;28;20149;-40
2023/05/12 00:45:30;;;;;;;5.72;2.70;;;12.60;99.90;;;;;;5107313;28;20098;-40
2023/05/12 00:47:56;;;;;;;3.55;2.70;;;12.70;99.90;;;;;;5110965;28;20099;-39
2023/05/12 00:50:22;;;;;;;3.33;2.40;;;12.70;99.90;;;;;;5113413;28;20017;-40
2023/05/12 00:52:48;;;;;;;3.33;2.60;;;12.70;99.90;;;;;;5107151;28;20082;-40
2023/05/12 00:55:14;;;;;;;4.43;3.10;;;12.70;99.90;;;;;;5110243;28;20234;-42
2023/05/12 00:57:41;;;;;;;2.92;2.60;;;12.70;99.90;;;;;;5112151;28;20059;-38
2023/05/12 01:00:07;;;;;;;4.05;3.20;;;12.70;99.90;;;;;;5111316;28;20038;-40
2023/05/12 01:02:33;;;;;;;9.15;3.58;;;12.60;99.90;;;;;;5104394;28;20550;-40
2023/05/12 01:04:59;;;;;;;4.82;3.15;;;12.60;99.90;;;;;;5091628;28;20036;-41
2023/05/12 01:07:26;;;;;;;4.63;2.88;;;12.60;99.90;;;;;;5091579;28;20036;-43
2023/05/12 01:09:55;;;;;;;4.30;3.00;;;12.60;99.90;;;;;;5104530;28;20026;-38
2023/05/12 01:12:22;;;;;;;7.47;2.83;;;12.60;99.90;;;;;;5097683;28;20085;-39
2023/05/12 01:14:49;;;;;;;4.28;2.65;;;12.60;99.90;;;;;;5112089;28;20028;-39
2023/05/12 01:17:26;;;;;;;3.28;2.42;;;12.60;99.90;;;;;;5109586;28;20024;-39
2023/05/12 01:19:55;;;;;;;3.78;2.33;;;12.60;99.90;;;;;;5107018;28;20023;-41
2023/05/12 01:22:22;;;;;;;4.90;2.90;;;12.50;99.90;;;;;;5106680;28;20042;-41
2023/05/12 01:24:55;;;;;;;5.88;2.72;;;12.50;99.90;;;;;;5115878;28;20091;-37
2023/05/12 01:27:24;;;;;;;3.35;2.80;;;12.50;99.90;;;;;;5100040;28;20032;-40
2023/05/12 01:29:51;;;;;;;5.22;2.83;;;12.50;99.90;;;;;;5095307;28;20039;-37
2023/05/12 01:32:17;;;;;;;3.40;2.67;;;12.50;99.90;;;;;;5106920;28;20472;-40
2023/05/12 01:34:43;;;;;;;8.05;2.70;;;12.40;99.90;;;;;;5096976;28;20469;-40
2023/05/12 01:37:09;;;;;;;5.78;2.78;;;12.50;99.90;;;;;;5098156;28;20031;-41
2023/05/12 01:39:35;;;;;;;6.63;3.08;;;12.50;99.90;;;;;;5117011;27;20026;-40
2023/05/12 01:42:02;;;;;;;6.68;2.92;;;12.40;99.90;;;;;;5103907;28;20081;-42
2023/05/12 01:44:27;;;;;;;5.82;3.35;;;12.40;99.90;;;;;;5115074;28;20019;-41
2023/05/12 01:46:53;;;;;;;5.50;3.40;;;12.50;99.90;;;;;;5116881;28;20453;-39
2023/05/12 01:49:19;;;;;;;4.15;2.67;;;12.50;99.90;;;;;;5108646;28;20434;-39
2023/05/12 01:51:45;;;;;;;6.63;3.55;;;12.50;99.90;;;;;;5096133;28;20031;-40
2023/05/12 01:54:10;;;;;;;5.25;3.08;;;12.40;99.90;;;;;;5096041;28;20052;-41
2023/05/12 01:56:36;;;;;;;6.22;3.38;;;12.40;99.90;;;;;;5095311;28;20085;-42
2023/05/12 01:59:02;;;;;;;5.68;3.25;;;12.50;99.90;;;;;;5098258;28;20040;-42
2023/05/12 02:01:27;;;;;;;6.13;3.22;;;12.50;99.90;;;;;;5094825;28;20052;-40
2023/05/12 02:03:56;;;;;;;5.90;3.70;;;12.40;99.90;;;;;;5112133;28;20028;-42
2023/05/12 02:06:22;;;;;;;4.35;2.75;;;12.40;99.90;;;;;;5111176;28;20032;-40
2023/05/12 02:08:48;;;;;;;4.40;2.67;;;12.40;99.90;;;;;;5095218;28;20024;-39
2023/05/12 02:11:14;;;;;;;6.70;3.35;;;12.40;99.90;;;;;;5095973;28;20024;-40
2023/05/12 02:13:41;;;;;;;4.70;3.05;;;12.40;99.90;;;;;;5112401;28;20024;-40
2023/05/12 02:16:06;;;;;;;3.47;2.55;;;12.40;99.90;;;;;;5116324;28;20110;-41
2023/05/12 02:18:32;;;;;;;5.78;2.97;;;12.40;99.90;;;;;;5107450;28;20459;-40
2023/05/12 02:20:58;;;;;;;4.68;2.38;;;12.40;99.90;;;;;;5096964;28;20507;-40
2023/05/12 02:23:23;;;;;;;4.60;2.65;;;12.30;99.90;;;;;;5115793;28;20155;-41
2023/05/12 02:25:49;;;;;;;4.10;3.08;;;12.30;99.90;;;;;;5116450;28;20012;-37
2023/05/12 02:28:15;;;;;;;2.63;2.30;;;12.30;99.90;;;;;;5109326;28;20488;-39
2023/05/12 02:30:48;;;;;;;3.58;2.55;;;12.30;99.90;;;;;;5099853;28;20028;-39
2023/05/12 02:33:14;;;;;;;3.60;2.58;;;12.30;99.90;;;;;;5108297;28;20025;-40
2023/05/12 02:35:40;;;;;;;3.30;2.45;;;12.30;99.90;;;;;;5103195;27;20035;-41
2023/05/12 02:38:05;;;;;;;4.20;2.38;;;12.20;99.90;;;;;;5095404;28;20020;-38
2023/05/12 02:40:31;;;;;;;3.67;2.10;;;12.20;99.90;;;;;;5094779;28;20023;-38
2023/05/12 02:42:57;;;;;;;5.03;2.05;;;12.30;99.90;;;;;;5096181;28;20031;-38
2023/05/12 02:45:22;;;;;;;2.85;2.03;;;12.30;99.90;;;;;;5100202;28;20031;-38
2023/05/12 02:47:48;;;;;;;3.42;2.28;;;12.30;99.90;;;;;;5095291;28;20533;-37
2023/05/12 02:50:15;;;;;;;3.33;2.10;;;12.30;99.90;;;;;;5096755;28;20087;-38
2023/05/12 02:52:40;;;;;;;9.18;1.35;;;12.30;99.90;;;;;;5105619;28;20096;-36
2023/05/12 02:55:07;;;;;;;3.22;1.77;;;12.30;99.90;;;;;;5110605;27;20024;-37
2023/05/12 02:57:32;;;;;;;1.83;1.48;;;12.20;99.90;;;;;;5114254;28;20036;-35
2023/05/12 02:59:59;;;;;;;1.40;1.30;;;12.30;99.90;;;;;;5112942;28;20435;-39
2023/05/12 03:02:25;;;;;;;1.50;1.40;;;12.30;99.90;;;;;;5094408;28;20032;-40
2023/05/12 03:04:50;;;;;;;2.30;1.10;;;12.30;99.90;;;;;;5107569;28;20100;-39
2023/05/12 03:07:16;;;;;;;1.70;1.13;;;12.30;99.90;;;;;;5112860;28;20031;-43
2023/05/12 03:09:42;;;;;;;1.42;1.23;;;12.30;99.90;;;;;;5094843;28;20032;-39
2023/05/12 03:12:07;;;;;;;0.93;0.70;;;12.20;99.90;;;;;;5095410;28;20023;-36
2023/05/12 03:14:33;;;;;;;1.58;1.13;;;12.20;99.90;;;;;;5102339;28;20061;-39
2023/05/12 03:16:59;;;;;;;3.47;1.73;;;12.30;99.90;;;;;;5110702;28;20388;-42
2023/05/12 03:19:26;;;;;;;3.28;1.45;;;12.30;99.90;;;;;;5107337;28;20016;-39
2023/05/12 03:21:52;;;;;;;2.15;1.60;;;12.20;99.90;;;;;;5093881;28;20035;-38
2023/05/12 03:24:18;;;;;;;1.70;1.38;;;12.20;99.90;;;;;;5102046;28;20028;-36
2023/05/12 03:26:44;;;;;;;4.70;1.35;;;12.20;99.90;;;;;;5096574;28;20032;-40
2023/05/12 03:29:09;;;;;;;3.97;1.83;;;12.20;99.90;;;;;;5110092;28;20016;-36
2023/05/12 03:31:35;;;;;;;4.18;2.28;;;12.20;99.90;;;;;;5096875;28;20039;-35
2023/05/12 03:34:01;;;;;;;2.40;2.20;;;12.20;99.90;;;;;;5101357;28;20028;-40
2023/05/12 03:36:27;;;;;;;3.85;2.35;;;12.10;99.90;;;;;;5105779;28;20027;-35
2023/05/12 03:38:52;;;;;;;7.07;3.20;;;12.20;99.90;;;;;;5100797;28;20085;-38
2023/05/12 03:41:18;;;;;;;7.60;3.25;;;12.20;99.90;;;;;;5106459;28;20028;-39
2023/05/12 03:43:44;;;;;;;6.57;3.30;;;12.10;99.90;;;;;;5111523;28;20110;-39
2023/05/12 03:46:09;;;;;;;8.50;4.22;;;12.10;99.90;;;;;;5114538;28;20443;-38
2023/05/12 03:48:35;;;;;;;7.90;3.90;;;12.20;99.90;;;;;;5105199;28;20066;-40
2023/05/12 03:51:01;;;;;;;8.73;3.88;;;12.20;99.90;;;;;;5096520;28;20557;-39
2023/05/12 03:53:26;;;;;;;11.65;4.65;;;12.20;99.90;;;;;;5107880;28;20019;-40
2023/05/12 03:55:52;;;;;;;10.02;4.38;;;12.20;99.90;;;;;;5105081;28;20449;-39
2023/05/12 03:58:18;;;;;;;13.00;5.35;;;12.20;99.90;;;;;;5096042;28;20035;-39
2023/05/12 04:00:43;;;;;;;10.52;5.00;;;12.20;99.90;;;;;;5106269;28;20541;-36
2023/05/12 04:03:09;;;;;;;13.50;5.72;;;12.20;99.90;;;;;;5100266;28;20447;-39
2023/05/12 04:05:38;;;;;;;17.75;5.47;;;12.30;99.90;;;;;;5095256;28;20036;-39
2023/05/12 04:08:03;;;;;;;17.45;6.43;;;12.30;99.90;;;;;;5094107;28;20488;-39
2023/05/12 04:10:29;;;;;;;17.52;7.43;;;12.20;99.90;;;;;;5093726;28;20051;-36
2023/05/12 04:12:55;;;;;;;20.10;7.53;;;12.10;99.90;;;;;;5107231;28;20445;-36
2023/05/12 04:15:20;;;;;;;16.92;7.43;;;12.10;99.90;;;;;;5112740;28;20035;-40
2023/05/12 04:17:46;;;;;;;22.05;8.13;;;12.20;99.90;;;;;;5110895;28;20472;-38
2023/05/12 04:20:11;;;;;;;19.52;7.90;;;12.20;99.90;;;;;;5100156;28;20093;-38
2023/05/12 04:22:37;;;;;;;23.65;8.52;;;12.20;99.90;;;;;;5113103;28;20601;-38
2023/05/12 04:25:03;;;;;;;17.95;7.60;;;12.20;99.90;;;;;;5111614;28;20426;-37
2023/05/12 04:27:28;;;;;;;20.95;7.55;;;12.20;99.90;;;;;;5106343;28;20027;-37
2023/05/12 04:29:54;;;;;;;18.10;8.38;;;12.30;99.90;;;;;;5104844;28;20020;-39
2023/05/12 04:32:20;;;;;;;15.02;6.88;;;12.20;99.90;;;;;;5112154;28;20369;-39
2023/05/12 04:34:46;;;;;;;23.50;7.90;;;12.20;99.90;;;;;;5098235;28;20020;-42
2023/05/12 04:37:12;;;;;;;21.80;8.57;;;12.30;99.90;;;;;;5113557;28;20027;-38
2023/05/12 04:39:38;;;;;;;20.90;7.97;;;12.30;99.90;;;;;;5106205;28;20027;-34
2023/05/12 04:42:03;;;;;;;18.48;8.18;;;12.30;99.90;;;;;;5096411;28;20530;-34
2023/05/12 04:44:29;;;;;;;29.35;9.05;;;12.40;99.90;;;;;;5099637;28;20028;-38
2023/05/12 04:46:55;;;;;;;20.48;8.43;;;12.30;99.90;;;;;;5097105;28;20031;-37
2023/05/12 04:49:21;;;;;;;22.52;8.55;;;12.30;99.90;;;;;;5100993;28;20419;-39
2023/05/12 04:51:47;;;;;;;24.15;9.70;;;12.30;99.90;;;;;;5105810;28;20351;-38
2023/05/12 04:54:13;;;;;;;26.67;8.82;;;12.30;99.90;;;;;;5102040;28;20722;-39
2023/05/12 04:56:38;;;;;;;24.85;10.23;;;12.40;99.90;;;;;;5093013;28;20016;-34
2023/05/12 04:59:05;;;;;;;27.80;9.70;;;12.40;99.90;;;;;;5102331;28;20028;-37
2023/05/12 05:01:31;;;;;;;27.15;10.35;;;12.40;99.90;;;;;;5093176;28;20477;-40
2023/05/12 05:03:56;;;;;;;25.27;9.80;;;12.40;99.90;;;;;;5092440;28;20026;-40
2023/05/12 05:06:22;;;;;;;22.05;9.27;;;12.40;99.90;;;;;;5092947;28;20021;-40
2023/05/12 05:08:48;;;;;;;21.33;9.35;;;12.40;99.90;;;;;;5091355;28;20020;-39
2023/05/12 05:11:14;;;;;;;27.60;10.90;;;12.40;99.90;;;;;;5093125;28;20089;-37
2023/05/12 05:13:39;;;;;;;28.17;10.30;;;12.40;99.90;;;;;;5102142;28;20039;-38
2023/05/12 05:16:06;;;;;;;23.20;9.95;;;12.30;99.90;;;;;;5090319;28;20032;-35
2023/05/12 05:18:32;;;;;;;26.45;9.38;;;12.30;99.90;;;;;;5091709;28;20107;-39
2023/05/12 05:20:57;;;;;;;30.20;11.60;;;12.40;99.90;;;;;;5112594;28;20111;-38
2023/05/12 05:23:23;;;;;;;39.72;11.90;;;12.40;99.90;;;;;;5100507;28;20028;-41
2023/05/12 05:25:48;;;;;;;38.25;12.88;;;12.40;99.90;;;;;;5102096;28;20055;-40
2023/05/12 05:28:14;;;;;;;32.28;10.85;;;12.40;99.90;;;;;;5092616;28;20035;-38
2023/05/12 05:30:40;;;;;;;31.73;12.60;;;12.40;99.90;;;;;;5108527;28;20568;-36
2023/05/12 05:33:06;;;;;;;36.97;13.35;;;12.40;99.90;;;;;;5098642;28;20020;-38
2023/05/12 05:35:31;;;;;;;34.92;13.80;;;12.40;99.90;;;;;;5091891;28;20020;-39
2023/05/12 05:37:57;;;;;;;28.40;11.95;;;12.40;99.90;;;;;;5092446;28;20476;-35
2023/05/12 05:40:23;;;;;;;37.00;14.57;;;12.50;99.90;;;;;;5095650;28;20024;-36
2023/05/12 05:42:48;;;;;;;41.40;14.23;;;12.50;99.90;;;;;;5095218;28;20123;-35
2023/05/12 05:45:14;;;;;;;34.67;12.82;;;12.60;99.90;;;;;;5113122;28;20026;-40
2023/05/12 05:47:40;;;;;;;34.28;12.30;;;12.60;99.90;;;;;;5109111;28;20305;-37
2023/05/12 05:50:06;;;;;;;35.50;12.05;;;12.60;99.90;;;;;;5111178;28;20069;-39
2023/05/12 05:52:31;;;;;;;38.20;13.77;;;12.70;99.90;;;;;;5102683;28;20028;-34
2023/05/12 05:54:57;;;;;;;39.22;13.05;;;12.80;99.90;;;;;;5108123;28;20043;-38
2023/05/12 05:57:23;;;;;;;34.97;14.07;;;12.80;99.90;;;;;;5110843;28;20034;-40
2023/05/12 05:59:48;;;;;;;37.80;14.40;;;12.80;99.90;;;;;;5098481;28;20098;-38
2023/05/12 06:02:15;;;;;;;43.65;13.65;;;12.80;99.90;;;;;;5091209;28;20036;-40
2023/05/12 06:04:40;;;;;;;42.25;13.80;;;12.80;99.90;;;;;;5100110;28;20039;-37
2023/05/12 06:07:06;;;;;;;48.75;14.20;;;12.80;99.90;;;;;;5099618;28;20016;-38
2023/05/12 06:09:32;;;;;;;41.83;15.52;;;12.90;99.90;;;;;;5100394;28;20149;-41
2023/05/12 06:11:58;;;;;;;39.20;13.15;;;12.90;99.90;;;;;;5098701;28;20024;-38
2023/05/12 06:14:26;;;;;;;35.60;13.73;;;12.90;99.90;;;;;;5106585;28;20543;-39
2023/05/12 06:16:52;;;;;;;35.75;14.15;;;13.00;99.90;;;;;;5113480;28;20464;-41
2023/05/12 06:19:18;;;;;;;38.65;14.18;;;13.00;99.90;;;;;;5107216;28;20102;-37
2023/05/12 06:21:43;;;;;;;42.33;14.27;;;13.00;99.90;;;;;;5097348;28;20036;-34
2023/05/12 06:24:09;;;;;;;37.45;12.90;;;13.00;99.90;;;;;;5095184;28;20484;-40
2023/05/12 06:26:35;;;;;;;36.65;13.77;;;13.10;99.90;;;;;;5077564;28;20020;-36
2023/05/12 06:29:01;;;;;;;40.92;14.45;;;13.20;99.90;;;;;;5095374;28;20483;-37
2023/05/12 06:31:27;;;;;;;38.83;13.02;;;13.20;99.90;;;;;;5106161;27;20028;-40
2023/05/12 06:33:52;;;;;;;43.00;14.52;;;13.20;99.90;;;;;;5094882;28;20090;-38
2023/05/12 06:36:18;;;;;;;36.55;14.90;;;13.20;99.90;;;;;;5103873;28;20042;-37
2023/05/12 06:38:44;;;;;;;35.95;14.10;;;13.30;99.90;;;;;;5095485;28;20059;-39
2023/05/12 06:41:09;;;;;;;35.85;13.75;;;13.30;99.90;;;;;;5096872;28;20076;-37
2023/05/12 06:43:35;;;;;;;38.50;13.57;;;13.30;99.90;;;;;;5104071;28;20472;-40
2023/05/12 06:46:00;;;;;;;35.58;13.65;;;13.20;99.90;;;;;;5108870;28;20020;-37
2023/05/12 06:48:26;;;;;;;35.40;14.15;;;13.30;99.90;;;;;;5095294;28;20388;-39
2023/05/12 06:50:52;;;;;;;40.40;14.68;;;13.30;99.90;;;;;;5095060;28;20030;-36
2023/05/12 06:53:17;;;;;;;39.17;14.48;;;13.30;99.90;;;;;;5104505;28;20492;-37
2023/05/12 06:55:45;;;;;;;36.38;12.82;;;13.40;99.90;;;;;;5115761;28;20153;-41
2023/05/12 06:58:10;;;;;;;42.42;15.38;;;13.40;99.90;;;;;;5107419;28;20027;-40
2023/05/12 07:00:36;;;;;;;45.33;14.23;;;13.50;99.90;;;;;;5110349;27;20024;-41
2023/05/12 07:03:02;;;;;;;35.83;13.35;;;13.50;99.90;;;;;;5096256;28;20392;-38
2023/05/12 07:05:27;;;;;;;33.45;13.27;;;13.50;99.90;;;;;;5107840;28;20039;-40
2023/05/12 07:07:53;;;;;;;35.22;13.43;;;13.60;99.90;;;;;;5097187;28;20384;-39
2023/05/12 07:10:20;;;;;;;38.97;15.25;;;13.60;99.90;;;;;;5094872;28;20024;-39
2023/05/12 07:12:45;;;;;;;35.75;13.73;;;13.70;99.90;;;;;;5094560;28;20150;-38
2023/05/12 07:15:11;;;;;;;30.38;13.23;;;13.80;99.90;;;;;;5098676;28;20174;-37
2023/05/12 07:17:36;;;;;;;27.58;12.18;;;13.90;99.90;;;;;;5096835;28;20495;-38
2023/05/12 07:20:03;;;;;;;32.05;13.23;;;14.00;99.90;;;;;;5114873;28;20027;-35
2023/05/12 07:22:31;;;;;;;38.35;13.93;;;14.10;99.90;;;;;;5113688;28;20031;-40
2023/05/12 07:24:56;;;;;;;35.80;13.02;;;14.20;99.90;;;;;;5097915;28;20480;-39
2023/05/12 07:27:22;;;;;;;30.80;14.25;;;14.20;99.90;;;;;;5114872;28;20034;-40
2023/05/12 07:29:47;;;;;;;27.23;13.20;;;14.20;99.90;;;;;;5102898;28;20427;-41
2023/05/12 07:32:13;;;;;;;35.47;14.05;;;14.20;99.90;;;;;;5111634;28;20080;-35
2023/05/12 07:34:39;;;;;;;32.67;14.05;;;14.20;99.90;;;;;;5098023;28;20064;-41
2023/05/12 07:37:05;;;;;;;32.83;12.77;;;14.30;99.90;;;;;;5094280;28;20525;-40
2023/05/12 07:39:31;;;;;;;29.75;12.60;;;14.30;99.90;;;;;;5104060;28;20143;-39
2023/05/12 07:41:58;;;;;;;23.98;11.18;;;14.30;99.90;;;;;;5104531;28;20032;-40
2023/05/12 07:44:24;;;;;;;27.53;12.30;;;14.40;99.90;;;;;;5101344;28;20081;-41
2023/05/12 07:46:49;;;;;;;27.75;12.10;;;14.50;99.90;;;;;;5094364;28;20024;-37
2023/05/12 07:49:15;;;;;;;28.73;11.40;;;14.50;99.90;;;;;;5104063;28;20073;-40
2023/05/12 07:51:41;;;;;;;27.95;11.60;;;14.60;99.90;;;;;;5108754;28;20045;-41
2023/05/12 07:54:06;;;;;;;28.92;12.85;;;14.60;99.90;;;;;;5100481;28;20429;-41
2023/05/12 07:56:32;;;;;;;29.25;11.73;;;14.80;99.90;;;;;;5111629;28;20080;-40
2023/05/12 07:58:58;;;;;;;26.42;13.02;;;14.90;99.90;;;;;;5108075;28;20024;-34
2023/05/12 08:01:24;;;;;;;33.97;12.77;;;15.10;99.90;;;;;;5096086;28;20434;-38
2023/05/12 08:03:50;;;;;;;27.80;11.65;;;15.10;99.90;;;;;;5106526;28;20413;-38
2023/05/12 08:06:16;;;;;;;29.40;12.48;;;15.30;99.90;;;;;;5114151;28;20480;-37
2023/05/12 08:08:42;;;;;;;24.88;11.45;;;15.30;99.90;;;;;;5112739;28;20112;-39
2023/05/12 08:11:08;;;;;;;25.33;11.07;;;15.40;99.90;;;;;;5098660;28;20026;-39
2023/05/12 08:13:38;;;;;;;26.45;11.73;;;15.60;99.90;;;;;;5100593;28;20420;-40
2023/05/12 08:16:04;;;;;;;24.40;11.52;;;15.60;99.90;;;;;;5113990;28;20027;-41
2023/05/12 08:18:30;;;;;;;20.65;10.02;;;15.80;99.90;;;;;;5113215;28;20428;-41
2023/05/12 08:20:55;;;;;;;22.15;10.15;;;15.90;99.90;;;;;;5110676;28;20076;-40
2023/05/12 08:23:21;;;;;;;22.13;10.63;;;16.10;99.90;;;;;;5103299;28;20019;-42
2023/05/12 08:25:47;;;;;;;20.17;10.50;;;16.20;99.90;;;;;;5114128;28;20046;-39
2023/05/12 08:28:13;;;;;;;20.60;10.63;;;16.30;99.90;;;;;;5096976;28;20017;-40
2023/05/12 08:30:40;;;;;;;20.35;9.98;;;16.30;99.90;;;;;;5104633;28;20026;-41
2023/05/12 08:33:06;;;;;;;21.45;11.00;;;16.40;99.90;;;;;;5092948;28;20020;-41
2023/05/12 08:35:32;;;;;;;21.50;9.68;;;16.40;99.90;;;;;;5094458;28;20032;-42
2023/05/12 08:37:58;;;;;;;16.08;9.48;;;16.40;99.90;;;;;;5113539;28;20023;-41
2023/05/12 08:40:25;;;;;;;16.38;9.38;;;16.40;99.90;;;;;;5107174;28;20089;-40
2023/05/12 08:43:25;;;;;;;18.60;9.57;;;16.60;99.90;;;;;;5107477;28;20107;-41
2023/05/12 08:45:56;;;;;;;22.17;9.75;;;16.80;99.90;;;;;;5110413;28;20043;-37
2023/05/12 08:48:26;;;;;;;17.25;10.10;;;17.00;99.90;;;;;;5108150;28;20095;-41
2023/05/12 08:50:53;;;;;;;18.52;9.90;;;17.20;99.90;;;;;;5103292;28;20022;-41
2023/05/12 08:53:21;;;;;;;19.15;9.52;;;17.20;99.90;;;;;;5093048;28;20020;-37
2023/05/12 08:55:47;;;;;;;16.77;9.18;;;17.40;99.90;;;;;;5102314;28;20103;-41
2023/05/12 08:58:14;;;;;;;16.90;9.38;;;17.50;99.90;;;;;;5113600;28;20569;-39
2023/05/12 09:00:40;;;;;;;16.42;9.02;;;17.70;99.90;;;;;;5112037;28;20016;-39
2023/05/12 09:03:06;;;;;;;13.32;7.70;;;17.70;99.90;;;;;;5100291;28;20032;-42
2023/05/12 09:05:33;;;;;;;14.13;8.57;;;17.80;99.90;;;;;;5105325;28;20036;-40
2023/05/12 09:08:00;;;;;;;15.43;8.80;;;18.00;99.90;;;;;;5107475;28;20019;-39
2023/05/12 09:10:27;;;;;;;13.23;8.10;;;18.30;99.90;;;;;;5098926;28;20499;-42
2023/05/12 09:12:57;;;;;;;19.00;7.85;;;18.70;99.90;;;;;;5099418;28;20027;-38
2023/05/12 09:15:31;;;;;;;17.20;7.78;;;19.20;99.90;;;;;;5113015;28;20027;-41
2023/05/12 09:17:56;;;;;;;9.20;6.45;;;19.40;99.90;;;;;;5099258;28;20059;-41
2023/05/12 09:20:25;;;;;;;12.15;6.72;;;19.70;99.90;;;;;;5106294;28;20404;-40
2023/05/12 09:22:50;;;;;;;13.02;6.65;;;19.80;99.90;;;;;;5110115;28;20073;-40
2023/05/12 09:25:17;;;;;;;8.18;5.80;;;19.90;99.90;;;;;;5099922;28;20465;-40
2023/05/12 09:27:46;;;;;;;9.15;6.55;;;20.00;99.90;;;;;;5091763;28;20382;-40
2023/05/12 09:30:12;;;;;;;10.75;6.32;;;20.00;99.90;;;;;;5096781;28;20042;-40
2023/05/12 09:32:37;;;;;;;10.15;6.45;;;20.10;99.90;;;;;;5105224;28;20143;-41
2023/05/12 09:35:10;;;;;;;9.52;6.10;;;20.10;99.90;;;;;;5092311;28;20028;-39
2023/05/12 09:37:36;;;;;;;8.25;6.07;;;19.90;99.90;;;;;;5092504;28;20149;-38
2023/05/12 09:40:04;;;;;;;9.30;6.20;;;19.60;99.90;;;;;;5104292;28;20027;-40
2023/05/12 09:42:31;;;;;;;8.20;5.47;;;19.60;99.90;;;;;;5093839;28;20481;-39
2023/05/12 09:45:05;;;;;;;7.55;5.35;;;19.50;99.90;;;;;;5090823;28;20027;-41
2023/05/12 09:47:38;;;;;;;6.22;4.80;;;19.40;99.90;;;;;;5094724;28;20404;-39
2023/05/12 09:50:05;;;;;;;7.57;5.15;;;19.40;99.90;;;;;;5095076;28;20361;-40
2023/05/12 09:52:35;;;;;;;9.40;5.00;;;19.60;99.90;;;;;;5095255;28;20032;-40
2023/05/12 09:55:12;;;;;;;10.88;5.07;;;19.40;99.90;;;;;;5103245;28;20114;-40
2023/05/12 09:57:42;;;;;;;5.88;4.38;;;19.20;99.90;;;;;;5103033;28;20420;-37
2023/05/12 10:00:10;;;;;;;8.02;4.43;;;19.00;99.90;;;;;;5107724;28;20522;-38
2023/05/12 10:02:43;;;;;;;6.80;4.35;;;18.90;99.90;;;;;;5100145;28;20024;-41
2023/05/12 10:05:18;;;;;;;12.32;6.38;;;18.90;99.90;;;;;;5095614;28;20512;-38
2023/05/12 10:07:46;;;;;;;7.30;5.18;;;18.90;99.90;;;;;;5105835;28;20046;-40
2023/05/12 10:10:22;;;;;;;7.00;4.80;;;19.00;99.90;;;;;;5107471;28;20023;-40
2023/05/12 10:12:48;;;;;;;6.90;4.68;;;19.10;99.90;;;;;;5102970;28;20032;-41
2023/05/12 10:15:16;;;;;;;7.03;4.70;;;19.70;99.90;;;;;;5099594;28;20032;-40
2023/05/12 10:17:43;;;;;;;6.05;4.45;;;20.00;99.90;;;;;;5098735;28;20426;-39
2023/05/12 10:20:10;;;;;;;4.90;4.00;;;20.20;99.90;;;;;;5095406;28;20503;-39
2023/05/12 10:22:39;;;;;;;4.93;3.90;;;20.30;99.90;;;;;;5100142;28;20384;-43
2023/05/12 10:25:09;;;;;;;5.85;3.75;;;20.10;99.90;;;;;;5095902;28;20811;-40
2023/05/12 10:27:35;;;;;;;5.32;3.72;;;20.20;99.90;;;;;;5099027;28;20399;-39
2023/05/12 10:30:03;;;;;;;4.60;3.80;;;20.40;99.90;;;;;;5096087;28;20345;-37
2023/05/12 10:32:29;;;;;;;4.53;3.65;;;20.30;99.90;;;;;;5095135;28;20069;-41
2023/05/12 10:35:05;;;;;;;10.75;4.05;;;20.00;99.90;;;;;;5099320;28;20031;-40
2023/05/12 10:37:33;;;;;;;8.57;2.70;;;20.00;99.90;;;;;;5116273;28;20023;-39
2023/05/12 10:40:01;;;;;;;;;;;20.30;99.90;;;;;;5116357;27;20027;-40
2023/05/12 10:42:35;;;;;;;3.70;3.08;;;20.50;99.90;;;;;;5115709;28;20348;-39
2023/05/12 10:45:03;;;;;;;3.22;2.83;;;20.40;99.90;;;;;;5113863;28;20046;-41
2023/05/12 10:47:37;;;;;;;6.38;3.22;;;20.40;99.90;;;;;;5110937;28;20541;-40
2023/05/12 10:50:03;;;;;;;6.30;3.50;;;20.40;99.90;;;;;;5093806;28;20027;-38
2023/05/12 10:52:29;;;;;;;3.92;2.75;;;20.50;99.90;;;;;;5096865;28;20385;-39
2023/05/12 10:55:02;;;;;;;6.28;3.40;;;20.60;99.90;;;;;;5101810;28;20028;-39
2023/05/12 10:57:29;;;;;;;3.50;3.10;;;20.60;99.90;;;;;;5106995;28;20491;-38
2023/05/12 10:59:59;;;;;;;2.63;2.43;;;20.80;99.90;;;;;;5101984;28;20024;-38
2023/05/12 11:02:31;;;;;;;3.53;2.95;;;20.90;99.90;;;;;;5100897;28;20047;-40
2023/05/12 11:04:58;;;;;;;2.90;2.60;;;20.90;99.90;;;;;;5113716;28;20557;-39
2023/05/12 11:07:32;;;;;;;3.75;2.97;;;20.90;99.90;;;;;;5108609;28;20031;-37
2023/05/12 11:10:00;;;;;;;4.35;3.25;;;21.10;99.90;;;;;;5107760;28;20484;-37
2023/05/12 11:12:31;;;;;;;2.70;2.50;;;21.20;99.90;;;;;;5115229;27;20102;-41
2023/05/12 11:14:58;;;;;;;8.20;2.67;;;21.20;99.90;;;;;;5120294;27;20601;-39
2023/05/12 11:17:24;;;;;;;3.00;2.67;;;21.20;99.90;;;;;;5113613;28;20066;-40
2023/05/12 11:19:51;;;;;;;3.78;2.67;;;20.90;99.90;;;;;;5095892;28;20512;-35
2023/05/12 11:22:19;;;;;;;3.47;2.50;;;20.70;99.90;;;;;;5096614;28;20027;-39
2023/05/12 11:24:46;;;;;;;3.95;2.17;;;20.50;99.90;;;;;;5111341;28;20325;-38
2023/05/12 11:27:13;;;;;;;3.05;2.20;;;20.50;99.90;;;;;;5114869;28;20085;-39
2023/05/12 11:29:40;;;;;;;2.65;2.38;;;20.60;99.90;;;;;;5096773;28;20485;-38
2023/05/12 11:32:07;;;;;;;2.30;2.10;;;20.70;99.90;;;;;;5094402;28;20020;-39
2023/05/12 11:34:33;;;;;;;4.03;2.38;;;20.70;99.90;;;;;;5094058;28;20289;-37
2023/05/12 11:36:59;;;;;;;1.98;1.77;;;20.70;99.90;;;;;;5094537;28;20028;-38
2023/05/12 11:39:32;;;;;;;3.30;2.80;;;20.60;99.90;;;;;;5093706;28;20476;-35
2023/05/12 11:42:15;;;;;;;2.15;1.95;;;20.30;99.90;;;;;;5094213;28;20052;-39
2023/05/12 11:44:48;;;;;;;3.20;1.67;;;20.40;99.90;;;;;;5094033;28;20099;-38
2023/05/12 11:47:15;;;;;;;1.80;1.67;;;20.50;99.90;;;;;;5092836;28;20036;-39
2023/05/12 11:49:49;;;;;;;1.57;1.47;;;20.60;99.90;;;;;;5093829;28;20016;-41
2023/05/12 11:52:16;;;;;;;1.20;1.00;;;20.60;99.90;;;;;;5092443;28;20047;-39
2023/05/12 11:55:04;;;;;;;1.50;1.40;;;20.80;99.90;;;;;;5104004;28;20027;-37
2023/05/12 11:57:31;;;;;;;4.88;1.58;;;20.90;99.90;;;;;;5110628;28;20023;-38
2023/05/12 12:00:08;;;;;;;2.00;1.80;;;21.00;99.90;;;;;;5114342;28;20019;-39
2023/05/12 12:02:36;;;;;;;1.40;1.30;;;21.30;99.90;;;;;;5096240;28;20491;-36
2023/05/12 12:05:03;;;;;;;2.00;1.77;;;21.50;99.90;;;;;;5093803;28;20486;-35
2023/05/12 12:07:33;;;;;;;5.28;1.92;;;21.60;99.90;;;;;;5108253;28;20491;-37
2023/05/12 12:10:12;;;;;;;4.55;1.85;;;21.60;99.90;;;;;;5102795;28;20444;-41
2023/05/12 12:12:39;;;;;;;2.67;2.20;;;21.40;99.90;;;;;;5092730;28;20473;-40
2023/05/12 12:15:06;;;;;;;2.20;2.00;;;21.30;99.90;;;;;;5097112;28;20480;-37
2023/05/12 12:17:31;;;;;;;2.22;2.03;;;21.30;99.90;;;;;;5096367;28;20450;-37
2023/05/12 12:19:57;;;;;;;4.90;1.85;;;21.50;99.90;;;;;;5093231;28;20085;-40
2023/05/12 12:22:23;;;;;;;1.55;1.45;;;21.40;99.90;;;;;;5093445;28;20032;-39
2023/05/12 12:24:49;;;;;;;4.03;1.90;;;21.50;99.90;;;;;;5092965;28;20080;-39
2023/05/12 12:27:14;;;;;;;1.80;1.70;;;21.50;99.90;;;;;;5093715;28;20067;-37
2023/05/12 12:29:40;;;;;;;2.17;1.55;;;21.50;99.90;;;;;;5094211;28;20111;-42
2023/05/12 12:32:07;;;;;;;1.90;1.80;;;21.70;99.90;;;;;;5091670;28;20055;-40
2023/05/12 12:34:33;;;;;;;1.67;1.58;;;21.80;99.90;;;;;;5099011;28;20145;-38
2023/05/12 12:36:59;;;;;;;2.17;1.92;;;21.90;99.90;;;;;;5113934;28;20396;-39
2023/05/12 12:39:24;;;;;;;4.55;1.92;;;22.00;99.90;;;;;;5103884;28;20027;-40